Time;durP1;ratioP1;P1;durP2;ratioP2;P2;SDS_P1;SDS_P2;PMS_P1;PMS_P2;Temp;Humidity;BMP_temperature;BMP_pressure;BME280_temperature;BME280_humidity;BME280_pressure;Samples;Min_cycle;Max_cycle;Signal;HPM_P1;HPM_P2
2023/01/06 00:03:07;;;;;;;;;;;;;;;9.6;100;101695.2;;;;-73
2023/01/06 00:06:55;;;;;;;;;;;;;;;9.49;100;101689.7;;;;-74
2023/01/06 00:11:52;;;;;;;;;;;;;;;9.46;100;101690.5;;;;-75
2023/01/06 00:16:52;;;;;;;;;;;;;;;9.44;100;101694.2;;;;-73
2023/01/06 00:21:52;;;;;;;;;;;;;;;9.45;100;101701.7;;;;-73
2023/01/06 00:26:52;;;;;;;;;;;;;;;9.45;100;101696.9;;;;-75
2023/01/06 00:27:33;;;;;;;7.9;1.6;;;;;;;;;;;;;-73
2023/01/06 00:31:52;;;;;;;;;;;;;;;9.45;100;101685.9;;;;-75
2023/01/06 00:36:52;;;;;;;;;;;;;;;9.45;100;101684.4;;;;-73
2023/01/06 00:42:10;;;;;;;;;;;;;;;9.45;100;101674.4;;;;-75
2023/01/06 00:46:52;;;;;;;;;;;;;;;9.46;100;101681.2;;;;-74
2023/01/06 00:51:52;;;;;;;;;;;;;;;9.46;100;101677.1;;;;-73
2023/01/06 00:56:53;;;;;;;;;;;;;;;9.46;100;101673.1;;;;-74
2023/01/06 00:57:32;;;;;;;4.8;1.3;;;;;;;;;;;;;-74
2023/01/06 01:01:53;;;;;;;;;;;;;;;9.46;100;101667.8;;;;-73
2023/01/06 01:06:52;;;;;;;;;;;;;;;9.45;100;101650.6;;;;-74
2023/01/06 01:16:52;;;;;;;;;;;;;;;9.44;100;101657.6;;;;-73
2023/01/06 01:21:52;;;;;;;;;;;;;;;9.44;100;101653.5;;;;-74
2023/01/06 01:26:52;;;;;;;;;;;;;;;9.44;100;101655.6;;;;-74
2023/01/06 01:27:32;;;;;;;4.8;1.3;;;;;;;;;;;;;-74
2023/01/06 01:31:52;;;;;;;;;;;;;;;9.44;100;101653.4;;;;-77
2023/01/06 01:36:53;;;;;;;;;;;;;;;9.45;100;101654.1;;;;-77
2023/01/06 01:41:52;;;;;;;;;;;;;;;9.44;100;101642.8;;;;-77
2023/01/06 01:46:52;;;;;;;;;;;;;;;9.44;100;101640.7;;;;-77
2023/01/06 01:51:53;;;;;;;;;;;;;;;9.43;100;101638.9;;;;-79
2023/01/06 01:56:57;;;;;;;;;;;;;;;9.43;100;101631.1;;;;-77
2023/01/06 01:57:34;;;;;;;6.3;2.2;;;;;;;;;;;;;-77
2023/01/06 02:01:52;;;;;;;;;;;;;;;9.42;100;101620.6;;;;-78
2023/01/06 02:06:52;;;;;;;;;;;;;;;9.41;100;101618.7;;;;-77
2023/01/06 02:11:52;;;;;;;;;;;;;;;9.41;100;101616.6;;;;-78
2023/01/06 02:17:00;;;;;;;;;;;;;;;9.41;100;101609.5;;;;-78
2023/01/06 02:22:06;;;;;;;;;;;;;;;9.41;100;101597.8;;;;-77
2023/01/06 02:27:11;;;;;;;;;;;;;;;9.4;100;101582.7;;;;-79
2023/01/06 02:27:45;;;;;;;7;3.3;;;;;;;;;;;;;-77
2023/01/06 02:31:59;;;;;;;;;;;;;;;9.41;100;101587.1;;;;-77
2023/01/06 02:36:57;;;;;;;;;;;;;;;9.4;100;101577.9;;;;-77
2023/01/06 02:41:56;;;;;;;;;;;;;;;9.4;100;101570.3;;;;-78
2023/01/06 02:47:02;;;;;;;;;;;;;;;9.39;100;101554.2;;;;-78
2023/01/06 02:51:54;;;;;;;;;;;;;;;9.38;100;101535.6;;;;-78
2023/01/06 02:56:53;;;;;;;;;;;;;;;9.4;100;101529.9;;;;-75
2023/01/06 02:57:39;;;;;;;6;3.2;;;;;;;;;;;;;-73
2023/01/06 03:01:55;;;;;;;;;;;;;;;9.38;100;101515.1;;;;-74
2023/01/06 03:06:53;;;;;;;;;;;;;;;9.38;100;101512.2;;;;-73
2023/01/06 03:11:53;;;;;;;;;;;;;;;9.39;100;101517.8;;;;-73
2023/01/06 03:16:52;;;;;;;;;;;;;;;9.39;100;101505.7;;;;-75
2023/01/06 03:21:53;;;;;;;;;;;;;;;9.38;100;101497.5;;;;-73
2023/01/06 03:26:52;;;;;;;;;;;;;;;9.38;100;101483.2;;;;-73
2023/01/06 03:27:35;;;;;;;4.6;2.2;;;;;;;;;;;;;-73
2023/01/06 03:31:57;;;;;;;;;;;;;;;9.37;100;101476.5;;;;-74
2023/01/06 03:36:58;;;;;;;;;;;;;;;9.36;100;101445.9;;;;-74
2023/01/06 03:46:55;;;;;;;;;;;;;;;9.35;100;101448.6;;;;-73
2023/01/06 03:51:57;;;;;;;;;;;;;;;9.35;100;101441.6;;;;-74
2023/01/06 03:56:54;;;;;;;;;;;;;;;9.34;100;101450.1;;;;-74
2023/01/06 03:57:36;;;;;;;3.5;1.8;;;;;;;;;;;;;-74
2023/01/06 04:01:52;;;;;;;;;;;;;;;9.35;100;101439.3;;;;-74
2023/01/06 04:06:52;;;;;;;;;;;;;;;9.36;100;101436.5;;;;-74
2023/01/06 04:16:52;;;;;;;;;;;;;;;9.36;100;101432.5;;;;-75
2023/01/06 04:21:53;;;;;;;;;;;;;;;9.36;100;101420.3;;;;-74
2023/01/06 04:26:52;;;;;;;;;;;;;;;9.34;100;101412.6;;;;-73
2023/01/06 04:27:35;;;;;;;4.3;1.6;;;;;;;;;;;;;-74
2023/01/06 04:31:52;;;;;;;;;;;;;;;9.35;100;101402.4;;;;-73
2023/01/06 04:36:52;;;;;;;;;;;;;;;9.36;100;101390.6;;;;-74
2023/01/06 04:41:52;;;;;;;;;;;;;;;9.38;100;101377.7;;;;-74
2023/01/06 04:46:52;;;;;;;;;;;;;;;9.41;100;101381.6;;;;-74
2023/01/06 04:51:52;;;;;;;;;;;;;;;9.41;100;101375.1;;;;-74
2023/01/06 04:56:52;;;;;;;;;;;;;;;9.42;100;101371.4;;;;-74
2023/01/06 04:57:36;;;;;;;5;2;;;;;;;;;;;;;-73
2023/01/06 05:01:54;;;;;;;;;;;;;;;9.44;100;101364;;;;-74
2023/01/06 05:06:52;;;;;;;;;;;;;;;9.43;100;101359.2;;;;-75
2023/01/06 05:11:52;;;;;;;;;;;;;;;9.42;100;101364.3;;;;-73
2023/01/06 05:16:52;;;;;;;;;;;;;;;9.41;100;101365.3;;;;-74
2023/01/06 05:21:52;;;;;;;;;;;;;;;9.39;100;101353.9;;;;-73
2023/01/06 05:26:53;;;;;;;;;;;;;;;9.37;100;101356;;;;-74
2023/01/06 05:27:36;;;;;;;5.7;2;;;;;;;;;;;;;-74
2023/01/06 05:31:52;;;;;;;;;;;;;;;9.34;100;101360.5;;;;-76
2023/01/06 05:36:52;;;;;;;;;;;;;;;9.31;100;101356.3;;;;-74
2023/01/06 05:41:52;;;;;;;;;;;;;;;9.3;100;101363.5;;;;-76
2023/01/06 05:46:52;;;;;;;;;;;;;;;9.29;100;101360.6;;;;-75
2023/01/06 05:51:52;;;;;;;;;;;;;;;9.3;100;101365.9;;;;-74
2023/01/06 05:56:52;;;;;;;;;;;;;;;9.3;100;101379.3;;;;-74
2023/01/06 05:57:39;;;;;;;4.6;2.2;;;;;;;;;;;;;-74
2023/01/06 06:01:52;;;;;;;;;;;;;;;9.31;100;101375.4;;;;-74
2023/01/06 06:06:54;;;;;;;;;;;;;;;9.32;100;101386.9;;;;-76
2023/01/06 06:11:54;;;;;;;;;;;;;;;9.34;100;101393.6;;;;-74
2023/01/06 06:16:52;;;;;;;;;;;;;;;9.36;100;101399.7;;;;-74
2023/01/06 06:21:52;;;;;;;;;;;;;;;9.39;100;101401.3;;;;-75
2023/01/06 06:26:52;;;;;;;;;;;;;;;9.39;100;101404.9;;;;-75
2023/01/06 06:27:37;;;;;;;3.2;1.4;;;;;;;;;;;;;-74
2023/01/06 06:31:52;;;;;;;;;;;;;;;9.39;100;101406.1;;;;-74
2023/01/06 06:36:53;;;;;;;;;;;;;;;9.39;100;101422.1;;;;-74
2023/01/06 06:41:52;;;;;;;;;;;;;;;9.39;100;101444.1;;;;-75
2023/01/06 06:46:52;;;;;;;;;;;;;;;9.38;100;101449.9;;;;-75
2023/01/06 06:51:53;;;;;;;;;;;;;;;9.35;100;101443.1;;;;-76
2023/01/06 06:56:52;;;;;;;;;;;;;;;9.31;100;101458.8;;;;-75
2023/01/06 06:57:38;;;;;;;8.6;1.8;;;;;;;;;;;;;-74
2023/01/06 07:01:52;;;;;;;;;;;;;;;9.26;100;101478.4;;;;-74
2023/01/06 07:06:52;;;;;;;;;;;;;;;9.19;100;101488;;;;-75
2023/01/06 07:11:52;;;;;;;;;;;;;;;9.15;100;101497.8;;;;-74
2023/01/06 07:16:52;;;;;;;;;;;;;;;9.11;100;101510;;;;-75
2023/01/06 07:21:52;;;;;;;;;;;;;;;9.07;100;101512.4;;;;-74
2023/01/06 07:26:53;;;;;;;;;;;;;;;9.01;100;101518.1;;;;-79
2023/01/06 07:27:40;;;;;;;6;1.5;;;;;;;;;;;;;-78
2023/01/06 07:31:52;;;;;;;;;;;;;;;8.91;100;101523;;;;-77
2023/01/06 07:36:52;;;;;;;;;;;;;;;8.81;100;101530.1;;;;-78
2023/01/06 07:41:52;;;;;;;;;;;;;;;8.68;100;101551.2;;;;-77
2023/01/06 07:46:52;;;;;;;;;;;;;;;8.57;100;101557.9;;;;-76
2023/01/06 07:51:52;;;;;;;;;;;;;;;8.45;100;101573.6;;;;-77
2023/01/06 07:56:53;;;;;;;;;;;;;;;8.35;100;101593.8;;;;-77
2023/01/06 07:57:39;;;;;;;6;1.1;;;;;;;;;;;;;-76
2023/01/06 08:01:52;;;;;;;;;;;;;;;8.27;100;101593.3;;;;-77
2023/01/06 08:06:52;;;;;;;;;;;;;;;8.14;100;101596.4;;;;-77
2023/01/06 08:11:52;;;;;;;;;;;;;;;8.07;100;101598.5;;;;-77
2023/01/06 08:16:51;;;;;;;;;;;;;;;8.04;100;101595;;;;-77
2023/01/06 08:21:52;;;;;;;;;;;;;;;7.98;100;101601.5;;;;-76
2023/01/06 08:26:52;;;;;;;;;;;;;;;7.93;100;101599.8;;;;-78
2023/01/06 08:27:39;;;;;;;8.9;1.2;;;;;;;;;;;;;-77
2023/01/06 08:31:52;;;;;;;;;;;;;;;7.9;100;101622.1;;;;-77
2023/01/06 08:36:52;;;;;;;;;;;;;;;7.86;100;101620.4;;;;-76
2023/01/06 08:41:53;;;;;;;;;;;;;;;7.84;100;101633.8;;;;-76
2023/01/06 08:46:52;;;;;;;;;;;;;;;7.81;100;101635.8;;;;-76
2023/01/06 08:51:51;;;;;;;;;;;;;;;7.8;100;101642.7;;;;-76
2023/01/06 08:56:52;;;;;;;;;;;;;;;7.78;100;101655.4;;;;-79
2023/01/06 08:57:40;;;;;;;6.8;1;;;;;;;;;;;;;-78
2023/01/06 09:01:54;;;;;;;;;;;;;;;7.76;100;101659.3;;;;-73
2023/01/06 09:06:52;;;;;;;;;;;;;;;7.75;100;101666.1;;;;-74
2023/01/06 09:11:52;;;;;;;;;;;;;;;7.77;100;101661.9;;;;-75
2023/01/06 09:16:52;;;;;;;;;;;;;;;7.82;100;101666.3;;;;-76
2023/01/06 09:21:52;;;;;;;;;;;;;;;7.91;100;101681.5;;;;-77
2023/01/06 09:26:52;;;;;;;;;;;;;;;8.01;100;101685.2;;;;-77
2023/01/06 09:27:39;;;;;;;5.5;0.9;;;;;;;;;;;;;-77
2023/01/06 09:31:54;;;;;;;;;;;;;;;8.05;100;101698.2;;;;-78
2023/01/06 09:36:52;;;;;;;;;;;;;;;8.09;100;101706.3;;;;-77
2023/01/06 09:42:03;;;;;;;;;;;;;;;8.11;100;101704.5;;;;-77
2023/01/06 09:46:53;;;;;;;;;;;;;;;8.17;100;101718;;;;-77
2023/01/06 09:51:52;;;;;;;;;;;;;;;8.25;100;101724.4;;;;-78
2023/01/06 09:56:54;;;;;;;;;;;;;;;8.3;100;101718.7;;;;-76
2023/01/06 09:57:42;;;;;;;6;1;;;;;;;;;;;;;-76
2023/01/06 10:01:54;;;;;;;;;;;;;;;8.33;100;101732.7;;;;-77
2023/01/06 10:06:56;;;;;;;;;;;;;;;8.35;100;101738.5;;;;-78
2023/01/06 10:11:59;;;;;;;;;;;;;;;8.42;100;101744.7;;;;-77
2023/01/06 10:17:00;;;;;;;;;;;;;;;8.44;100;101761.5;;;;-77
2023/01/06 10:21:56;;;;;;;;;;;;;;;8.48;100;101771.3;;;;-77
2023/01/06 10:26:53;;;;;;;;;;;;;;;8.48;100;101779.3;;;;-77
2023/01/06 10:27:43;;;;;;;6.1;0.9;;;;;;;;;;;;;-77
2023/01/06 10:31:54;;;;;;;;;;;;;;;8.51;100;101786;;;;-79
2023/01/06 10:36:55;;;;;;;;;;;;;;;8.52;100;101787.3;;;;-79
2023/01/06 10:42:54;;;;;;;;;;;;;;;8.56;100;101784.2;;;;-73
2023/01/06 10:46:52;;;;;;;;;;;;;;;8.63;100;101775.4;;;;-75
2023/01/06 10:51:54;;;;;;;;;;;;;;;8.68;100;101765.6;;;;-73
2023/01/06 10:56:55;;;;;;;;;;;;;;;8.67;100;101761.5;;;;-73
2023/01/06 10:57:42;;;;;;;6.7;1;;;;;;;;;;;;;-73
2023/01/06 11:01:55;;;;;;;;;;;;;;;8.68;100;101751;;;;-75
2023/01/06 11:06:53;;;;;;;;;;;;;;;8.71;100;101756;;;;-74
2023/01/06 11:11:53;;;;;;;;;;;;;;;8.71;100;101755.2;;;;-75
2023/01/06 11:16:56;;;;;;;;;;;;;;;8.71;100;101755.8;;;;-74
2023/01/06 11:21:52;;;;;;;;;;;;;;;8.71;100;101767.1;;;;-74
2023/01/06 11:26:54;;;;;;;;;;;;;;;8.68;100;101760.6;;;;-74
2023/01/06 11:27:44;;;;;;;7.8;1;;;;;;;;;;;;;-73
2023/01/06 11:31:53;;;;;;;;;;;;;;;8.68;100;101750.3;;;;-74
2023/01/06 11:36:52;;;;;;;;;;;;;;;8.68;100;101752.6;;;;-73
2023/01/06 11:41:54;;;;;;;;;;;;;;;8.72;100;101761.2;;;;-75
2023/01/06 11:46:59;;;;;;;;;;;;;;;8.73;100;101754.7;;;;-75
2023/01/06 11:51:52;;;;;;;;;;;;;;;8.74;100;101745;;;;-74
2023/01/06 11:57:02;;;;;;;;;;;;;;;8.75;100;101737.1;;;;-74
2023/01/06 11:57:44;;;;;;;8.8;1.2;;;;;;;;;;;;;-73
2023/01/06 12:01:55;;;;;;;;;;;;;;;8.78;100;101733.2;;;;-75
2023/01/06 12:06:55;;;;;;;;;;;;;;;8.8;100;101734.1;;;;-73
2023/01/06 12:11:54;;;;;;;;;;;;;;;8.8;100;101724.8;;;;-74
2023/01/06 12:16:58;;;;;;;;;;;;;;;8.8;100;101722.7;;;;-73
2023/01/06 12:21:52;;;;;;;;;;;;;;;8.8;100;101722.1;;;;-74
2023/01/06 12:26:52;;;;;;;;;;;;;;;8.82;100;101720.9;;;;-74
2023/01/06 12:27:43;;;;;;;7.4;1;;;;;;;;;;;;;-73
2023/01/06 12:31:56;;;;;;;;;;;;;;;8.82;100;101729.4;;;;-72
2023/01/06 12:36:55;;;;;;;;;;;;;;;8.8;100;101738.5;;;;-74
2023/01/06 12:41:54;;;;;;;;;;;;;;;8.81;100;101751.3;;;;-74
2023/01/06 12:46:56;;;;;;;;;;;;;;;8.79;100;101751.1;;;;-73
2023/01/06 12:51:55;;;;;;;;;;;;;;;8.76;100;101743.2;;;;-75
2023/01/06 12:57:01;;;;;;;;;;;;;;;8.75;100;101743.2;;;;-74
2023/01/06 12:57:56;;;;;;;6;1.1;;;;;;;;;;;;;-73
2023/01/06 13:01:54;;;;;;;;;;;;;;;8.74;100;101745.2;;;;-80
2023/01/06 13:06:59;;;;;;;;;;;;;;;8.73;100;101740.5;;;;-78
2023/01/06 13:12:02;;;;;;;;;;;;;;;8.7;100;101720.4;;;;-78
2023/01/06 13:16:55;;;;;;;;;;;;;;;8.7;100;101731.6;;;;-79
2023/01/06 13:21:53;;;;;;;;;;;;;;;8.68;100;101732.5;;;;-79
2023/01/06 13:27:12;;;;;;;;;;;;;;;8.68;100;101726.6;;;;-78
2023/01/06 13:27:47;;;;;;;5.8;1;;;;;;;;;;;;;-79
2023/01/06 13:31:59;;;;;;;;;;;;;;;8.68;100;101723;;;;-79
2023/01/06 13:36:59;;;;;;;;;;;;;;;8.68;100;101724.9;;;;-78
2023/01/06 13:41:53;;;;;;;;;;;;;;;8.71;100;101720.1;;;;-78
2023/01/06 13:46:52;;;;;;;;;;;;;;;8.71;100;101719.9;;;;-78
2023/01/06 13:51:53;;;;;;;;;;;;;;;8.7;100;101716.5;;;;-79
2023/01/06 13:57:01;;;;;;;;;;;;;;;8.68;100;101722.8;;;;-77
2023/01/06 13:57:44;;;;;;;6.2;1.1;;;;;;;;;;;;;-77
2023/01/06 14:01:53;;;;;;;;;;;;;;;8.66;100;101716.8;;;;-77
2023/01/06 14:06:52;;;;;;;;;;;;;;;8.63;100;101734.3;;;;-77
2023/01/06 14:11:52;;;;;;;;;;;;;;;8.61;100;101731.5;;;;-78
2023/01/06 14:16:53;;;;;;;;;;;;;;;8.58;100;101724.8;;;;-77
2023/01/06 14:21:53;;;;;;;;;;;;;;;8.56;100;101735.2;;;;-77
2023/01/06 14:27:02;;;;;;;;;;;;;;;8.53;100;101724.1;;;;-79
2023/01/06 14:27:54;;;;;;;4;1;;;;;;;;;;;;;-78
2023/01/06 14:31:52;;;;;;;;;;;;;;;8.53;100;101723.2;;;;-77
2023/01/06 14:36:53;;;;;;;;;;;;;;;8.49;100;101714.5;;;;-78
2023/01/06 14:41:54;;;;;;;;;;;;;;;8.46;100;101711.8;;;;-78
2023/01/06 14:46:54;;;;;;;;;;;;;;;8.44;100;101716.7;;;;-78
2023/01/06 14:51:55;;;;;;;;;;;;;;;8.4;100;101715.1;;;;-79
2023/01/06 14:56:59;;;;;;;;;;;;;;;8.39;100;101721.8;;;;-78
2023/01/06 14:57:43;;;;;;;6.5;1.1;;;;;;;;;;;;;-79
2023/01/06 15:01:58;;;;;;;;;;;;;;;8.35;100;101732.8;;;;-78
2023/01/06 15:07:04;;;;;;;;;;;;;;;8.32;100;101735.1;;;;-78
2023/01/06 15:11:51;;;;;;;;;;;;;;;8.3;100;101731.5;;;;-78
2023/01/06 15:16:51;;;;;;;;;;;;;;;8.26;100;101735.5;;;;-78
2023/01/06 15:21:53;;;;;;;;;;;;;;;8.22;100;101735.1;;;;-79
2023/01/06 15:26:52;;;;;;;;;;;;;;;8.18;100;101730.8;;;;-78
2023/01/06 15:27:47;;;;;;;4.5;1.2;;;;;;;;;;;;;-79
2023/01/06 15:31:53;;;;;;;;;;;;;;;8.14;100;101729.3;;;;-78
2023/01/06 15:36:53;;;;;;;;;;;;;;;8.1;100;101725.7;;;;-78
2023/01/06 15:41:52;;;;;;;;;;;;;;;8.07;100;101713.9;;;;-77
2023/01/06 15:46:52;;;;;;;;;;;;;;;8.03;100;101719;;;;-77
2023/01/06 15:51:56;;;;;;;;;;;;;;;7.98;100;101722;;;;-78
2023/01/06 15:56:52;;;;;;;;;;;;;;;7.96;100;101723.4;;;;-77
2023/01/06 15:57:44;;;;;;;5.7;1.1;;;;;;;;;;;;;-76
2023/01/06 16:01:56;;;;;;;;;;;;;;;7.91;100;101729;;;;-77
2023/01/06 16:06:52;;;;;;;;;;;;;;;7.87;100;101723.1;;;;-77
2023/01/06 16:12:02;;;;;;;;;;;;;;;7.83;100;101728.3;;;;-79
2023/01/06 16:16:52;;;;;;;;;;;;;;;7.76;100;101721.5;;;;-77
2023/01/06 16:21:54;;;;;;;;;;;;;;;7.74;100;101720.3;;;;-77
2023/01/06 16:26:58;;;;;;;;;;;;;;;7.68;100;101720.6;;;;-76
2023/01/06 16:27:48;;;;;;;4.1;0.8;;;;;;;;;;;;;-77
2023/01/06 16:31:51;;;;;;;;;;;;;;;7.65;100;101726.3;;;;-77
2023/01/06 16:36:52;;;;;;;;;;;;;;;7.6;100;101710.7;;;;-79
2023/01/06 16:42:02;;;;;;;;;;;;;;;7.58;100;101710.1;;;;-77
2023/01/06 16:46:52;;;;;;;;;;;;;;;7.53;100;101709.7;;;;-77
2023/01/06 16:51:52;;;;;;;;;;;;;;;7.48;100;101712.6;;;;-78
2023/01/06 16:56:52;;;;;;;;;;;;;;;7.44;100;101712.9;;;;-76
2023/01/06 16:57:44;;;;;;;4;0.9;;;;;;;;;;;;;-77
2023/01/06 17:01:51;;;;;;;;;;;;;;;7.37;100;101711;;;;-77
2023/01/06 17:06:51;;;;;;;;;;;;;;;7.34;100;101712;;;;-78
2023/01/06 17:11:53;;;;;;;;;;;;;;;7.29;100;101704.1;;;;-77
2023/01/06 17:16:52;;;;;;;;;;;;;;;7.26;100;101707.9;;;;-77
2023/01/06 17:21:52;;;;;;;;;;;;;;;7.19;100;101702;;;;-79
2023/01/06 17:26:53;;;;;;;;;;;;;;;7.16;100;101713;;;;-77
2023/01/06 17:27:47;;;;;;;4.7;1;;;;;;;;;;;;;-77
2023/01/06 17:31:52;;;;;;;;;;;;;;;7.15;100;101707.6;;;;-77
2023/01/06 17:36:53;;;;;;;;;;;;;;;7.13;100;101703;;;;-77
2023/01/06 17:41:52;;;;;;;;;;;;;;;7.11;100;101722.5;;;;-77
2023/01/06 17:46:52;;;;;;;;;;;;;;;7.1;100;101700.5;;;;-78
2023/01/06 17:51:53;;;;;;;;;;;;;;;7.09;100;101691.8;;;;-77
2023/01/06 17:56:53;;;;;;;;;;;;;;;7.1;100;101693.4;;;;-78
2023/01/06 17:57:45;;;;;;;4.3;1.4;;;;;;;;;;;;;-77
2023/01/06 18:01:51;;;;;;;;;;;;;;;7.09;100;101686.3;;;;-77
2023/01/06 18:06:51;;;;;;;;;;;;;;;7.08;100;101678.6;;;;-79
2023/01/06 18:11:53;;;;;;;;;;;;;;;7.07;100;101675.1;;;;-77
2023/01/06 18:16:53;;;;;;;;;;;;;;;7.04;100;101680.2;;;;-78
2023/01/06 18:21:52;;;;;;;;;;;;;;;7.03;100;101686.8;;;;-77
2023/01/06 18:26:56;;;;;;;;;;;;;;;7.02;100;101708.9;;;;-87
2023/01/06 18:27:45;;;;;;;5.9;1.6;;;;;;;;;;;;;-83
2023/01/06 18:31:54;;;;;;;;;;;;;;;7.02;100;101708.1;;;;-85
2023/01/06 18:36:52;;;;;;;;;;;;;;;7.08;100;101700.7;;;;-78
2023/01/06 18:41:52;;;;;;;;;;;;;;;7.11;100;101695.6;;;;-80
2023/01/06 18:46:51;;;;;;;;;;;;;;;7.16;100;101681.6;;;;-79
2023/01/06 18:51:51;;;;;;;;;;;;;;;7.21;100;101680.4;;;;-77
2023/01/06 18:56:52;;;;;;;;;;;;;;;7.26;100;101665.1;;;;-78
2023/01/06 18:57:45;;;;;;;6.7;2;;;;;;;;;;;;;-78
2023/01/06 19:01:52;;;;;;;;;;;;;;;7.31;100;101671.3;;;;-79
2023/01/06 19:06:53;;;;;;;;;;;;;;;7.42;100;101669.9;;;;-80
2023/01/06 19:11:55;;;;;;;;;;;;;;;7.45;100;101665.9;;;;-78
2023/01/06 19:16:55;;;;;;;;;;;;;;;7.39;100;101668;;;;-77
2023/01/06 19:21:51;;;;;;;;;;;;;;;7.48;100;101658.5;;;;-80
2023/01/06 19:26:51;;;;;;;;;;;;;;;7.54;100;101656;;;;-77
2023/01/06 19:27:49;;;;;;;10.9;3.1;;;;;;;;;;;;;-77
2023/01/06 19:31:57;;;;;;;;;;;;;;;7.6;100;101646.3;;;;-75
2023/01/06 19:36:52;;;;;;;;;;;;;;;7.62;100;101633.6;;;;-76
2023/01/06 19:41:52;;;;;;;;;;;;;;;7.65;100;101618.2;;;;-74
2023/01/06 19:46:52;;;;;;;;;;;;;;;7.68;100;101600.1;;;;-75
2023/01/06 19:51:52;;;;;;;;;;;;;;;7.67;100;101612.9;;;;-73
2023/01/06 19:56:52;;;;;;;;;;;;;;;7.7;100;101624.2;;;;-73
2023/01/06 19:57:46;;;;;;;12.9;4.7;;;;;;;;;;;;;-75
2023/01/06 20:01:54;;;;;;;;;;;;;;;7.7;100;101615.8;;;;-74
2023/01/06 20:06:51;;;;;;;;;;;;;;;7.75;100;101608.9;;;;-73
2023/01/06 20:11:51;;;;;;;;;;;;;;;7.8;100;101599.3;;;;-75
2023/01/06 20:16:52;;;;;;;;;;;;;;;7.87;100;101607.6;;;;-74
2023/01/06 20:21:51;;;;;;;;;;;;;;;7.92;100;101608;;;;-75
2023/01/06 20:26:51;;;;;;;;;;;;;;;7.99;100;101602.7;;;;-74
2023/01/06 20:27:46;;;;;;;14.7;7;;;;;;;;;;;;;-75
2023/01/06 20:31:51;;;;;;;;;;;;;;;8.05;100;101600.8;;;;-74
2023/01/06 20:36:51;;;;;;;;;;;;;;;8.09;100;101589.6;;;;-74
2023/01/06 20:41:51;;;;;;;;;;;;;;;8.16;100;101590.9;;;;-74
2023/01/06 20:46:51;;;;;;;;;;;;;;;8.21;100;101590.5;;;;-72
2023/01/06 20:51:52;;;;;;;;;;;;;;;8.29;100;101594.3;;;;-73
2023/01/06 20:56:52;;;;;;;;;;;;;;;8.33;100;101587.6;;;;-74
2023/01/06 20:57:46;;;;;;;15.6;8.2;;;;;;;;;;;;;-73
2023/01/06 21:01:51;;;;;;;;;;;;;;;8.41;100;101583.7;;;;-77
2023/01/06 21:06:51;;;;;;;;;;;;;;;8.49;100;101577.4;;;;-76
2023/01/06 21:11:51;;;;;;;;;;;;;;;8.56;100;101589.5;;;;-77
2023/01/06 21:16:51;;;;;;;;;;;;;;;8.63;100;101580;;;;-77
2023/01/06 21:21:51;;;;;;;;;;;;;;;8.69;100;101579.4;;;;-74
2023/01/06 21:26:51;;;;;;;;;;;;;;;8.74;100;101576.6;;;;-73
2023/01/06 21:27:47;;;;;;;15.2;8;;;;;;;;;;;;;-74
2023/01/06 21:31:52;;;;;;;;;;;;;;;8.78;100;101568.9;;;;-73
2023/01/06 21:36:51;;;;;;;;;;;;;;;8.83;100;101567;;;;-73
2023/01/06 21:46:51;;;;;;;;;;;;;;;8.95;100;101562.5;;;;-74
2023/01/06 21:51:52;;;;;;;;;;;;;;;9;100;101560.3;;;;-75
2023/01/06 21:56:52;;;;;;;;;;;;;;;9;100;101567;;;;-74
2023/01/06 21:57:50;;;;;;;15.1;7.7;;;;;;;;;;;;;-74
2023/01/06 22:01:51;;;;;;;;;;;;;;;9.05;100;101570.9;;;;-73
2023/01/06 22:06:51;;;;;;;;;;;;;;;9.09;100;101570.4;;;;-73
2023/01/06 22:11:52;;;;;;;;;;;;;;;9.11;100;101566.6;;;;-74
2023/01/06 22:16:53;;;;;;;;;;;;;;;9.15;100;101558.8;;;;-75
2023/01/06 22:21:51;;;;;;;;;;;;;;;9.19;100;101558.7;;;;-75
2023/01/06 22:26:51;;;;;;;;;;;;;;;9.21;100;101562.8;;;;-73
2023/01/06 22:27:48;;;;;;;12.4;7.2;;;;;;;;;;;;;-74
2023/01/06 22:31:51;;;;;;;;;;;;;;;9.27;100;101557.6;;;;-73
2023/01/06 22:36:52;;;;;;;;;;;;;;;9.3;100;101560.1;;;;-74
2023/01/06 22:41:52;;;;;;;;;;;;;;;9.35;100;101559.5;;;;-74
2023/01/06 22:46:51;;;;;;;;;;;;;;;9.36;100;101553.3;;;;-74
2023/01/06 22:51:52;;;;;;;;;;;;;;;9.38;100;101561.8;;;;-73
2023/01/06 22:56:51;;;;;;;;;;;;;;;9.43;100;101549.3;;;;-76
2023/01/06 22:57:52;;;;;;;10.4;6.5;;;;;;;;;;;;;-74
2023/01/06 23:01:51;;;;;;;;;;;;;;;9.46;100;101546.1;;;;-73
2023/01/06 23:06:51;;;;;;;;;;;;;;;9.48;100;101545.4;;;;-74
2023/01/06 23:11:51;;;;;;;;;;;;;;;9.51;100;101548;;;;-74
2023/01/06 23:16:51;;;;;;;;;;;;;;;9.51;100;101547;;;;-74
2023/01/06 23:21:51;;;;;;;;;;;;;;;9.54;100;101543.3;;;;-73
2023/01/06 23:26:51;;;;;;;;;;;;;;;9.58;100;101536;;;;-74
2023/01/06 23:27:48;;;;;;;10.8;6.3;;;;;;;;;;;;;-73
2023/01/06 23:31:51;;;;;;;;;;;;;;;9.59;100;101528.5;;;;-75
2023/01/06 23:36:52;;;;;;;;;;;;;;;9.6;100;101527.6;;;;-73
2023/01/06 23:41:52;;;;;;;;;;;;;;;9.62;100;101531;;;;-74
2023/01/06 23:46:51;;;;;;;;;;;;;;;9.66;100;101528.6;;;;-74
2023/01/06 23:51:54;;;;;;;;;;;;;;;9.65;100;101521.2;;;;-75
2023/01/06 23:56:53;;;;;;;;;;;;;;;9.67;100;101518.3;;;;-75
2023/01/06 23:57:49;;;;;;;11.3;6.8;;;;;;;;;;;;;-73
